sensor_id;sensor_type;location;lat;lon;timestamp;P1;durP1;ratioP1;P2;durP2;ratioP2
71395;SDS011;59888;55.814;37.132;2023-07-13T00:00:35;5.82;;;2.22;;
71395;SDS011;59888;55.814;37.132;2023-07-13T00:03:02;4.55;;;2.13;;
71395;SDS011;59888;55.814;37.132;2023-07-13T00:05:30;5.55;;;2.03;;
71395;SDS011;59888;55.814;37.132;2023-07-13T00:07:56;4.35;;;2.53;;
71395;SDS011;59888;55.814;37.132;2023-07-13T00:10:23;3.47;;;2.03;;
71395;SDS011;59888;55.814;37.132;2023-07-13T00:12:49;4.38;;;2.20;;
71395;SDS011;59888;55.814;37.132;2023-07-13T00:15:24;4.18;;;2.58;;
71395;SDS011;59888;55.814;37.132;2023-07-13T00:17:52;3.35;;;2.22;;
71395;SDS011;59888;55.814;37.132;2023-07-13T00:20:20;5.35;;;2.45;;
71395;SDS011;59888;55.814;37.132;2023-07-13T00:22:48;3.85;;;2.38;;
71395;SDS011;59888;55.814;37.132;2023-07-13T00:25:16;3.47;;;2.20;;
71395;SDS011;59888;55.814;37.132;2023-07-13T00:27:43;3.88;;;1.90;;
71395;SDS011;59888;55.814;37.132;2023-07-13T00:30:09;3.63;;;2.38;;
71395;SDS011;59888;55.814;37.132;2023-07-13T00:32:37;3.95;;;2.35;;
71395;SDS011;59888;55.814;37.132;2023-07-13T00:35:03;6.80;;;2.38;;
71395;SDS011;59888;55.814;37.132;2023-07-13T00:37:31;4.70;;;2.33;;
71395;SDS011;59888;55.814;37.132;2023-07-13T00:39:57;6.63;;;2.00;;
71395;SDS011;59888;55.814;37.132;2023-07-13T00:42:23;5.10;;;2.33;;
71395;SDS011;59888;55.814;37.132;2023-07-13T00:47:46;3.33;;;2.20;;
71395;SDS011;59888;55.814;37.132;2023-07-13T00:50:13;5.43;;;2.65;;
71395;SDS011;59888;55.814;37.132;2023-07-13T00:52:43;2.88;;;1.90;;
71395;SDS011;59888;55.814;37.132;2023-07-13T00:55:11;5.28;;;2.28;;
71395;SDS011;59888;55.814;37.132;2023-07-13T00:57:39;5.70;;;2.55;;
71395;SDS011;59888;55.814;37.132;2023-07-13T01:00:07;6.22;;;2.85;;
71395;SDS011;59888;55.814;37.132;2023-07-13T01:02:35;5.78;;;2.55;;
71395;SDS011;59888;55.814;37.132;2023-07-13T01:05:13;4.50;;;2.38;;
71395;SDS011;59888;55.814;37.132;2023-07-13T01:07:43;3.90;;;2.22;;
71395;SDS011;59888;55.814;37.132;2023-07-13T01:10:26;4.78;;;2.50;;
71395;SDS011;59888;55.814;37.132;2023-07-13T01:12:53;4.38;;;2.28;;
71395;SDS011;59888;55.814;37.132;2023-07-13T01:15:42;5.95;;;2.70;;
71395;SDS011;59888;55.814;37.132;2023-07-13T01:18:17;3.15;;;2.25;;
71395;SDS011;59888;55.814;37.132;2023-07-13T01:20:52;3.63;;;2.35;;
71395;SDS011;59888;55.814;37.132;2023-07-13T01:23:18;5.15;;;2.38;;
71395;SDS011;59888;55.814;37.132;2023-07-13T01:25:44;5.00;;;2.47;;
71395;SDS011;59888;55.814;37.132;2023-07-13T01:28:11;5.88;;;2.33;;
71395;SDS011;59888;55.814;37.132;2023-07-13T01:30:38;6.43;;;2.25;;
71395;SDS011;59888;55.814;37.132;2023-07-13T01:33:06;2.97;;;1.98;;
71395;SDS011;59888;55.814;37.132;2023-07-13T01:35:33;5.22;;;2.10;;
71395;SDS011;59888;55.814;37.132;2023-07-13T01:37:59;3.33;;;2.35;;
71395;SDS011;59888;55.814;37.132;2023-07-13T01:40:27;6.78;;;2.40;;
71395;SDS011;59888;55.814;37.132;2023-07-13T01:42:54;3.53;;;2.15;;
71395;SDS011;59888;55.814;37.132;2023-07-13T01:45:20;3.83;;;2.53;;
71395;SDS011;59888;55.814;37.132;2023-07-13T01:47:47;3.30;;;2.35;;
71395;SDS011;59888;55.814;37.132;2023-07-13T01:50:13;3.80;;;2.40;;
71395;SDS011;59888;55.814;37.132;2023-07-13T01:52:39;4.20;;;2.22;;
71395;SDS011;59888;55.814;37.132;2023-07-13T01:55:06;4.60;;;2.20;;
71395;SDS011;59888;55.814;37.132;2023-07-13T01:57:33;3.75;;;2.20;;
71395;SDS011;59888;55.814;37.132;2023-07-13T01:59:59;3.17;;;2.28;;
71395;SDS011;59888;55.814;37.132;2023-07-13T02:02:26;3.65;;;1.90;;
71395;SDS011;59888;55.814;37.132;2023-07-13T02:04:52;4.50;;;2.17;;
71395;SDS011;59888;55.814;37.132;2023-07-13T02:07:20;8.90;;;2.33;;
71395;SDS011;59888;55.814;37.132;2023-07-13T02:09:46;3.38;;;2.15;;
71395;SDS011;59888;55.814;37.132;2023-07-13T02:12:12;3.55;;;2.15;;
71395;SDS011;59888;55.814;37.132;2023-07-13T02:14:38;6.53;;;2.35;;
71395;SDS011;59888;55.814;37.132;2023-07-13T02:17:05;3.70;;;1.95;;
71395;SDS011;59888;55.814;37.132;2023-07-13T02:19:31;3.17;;;2.25;;
71395;SDS011;59888;55.814;37.132;2023-07-13T02:21:57;6.97;;;2.58;;
71395;SDS011;59888;55.814;37.132;2023-07-13T02:24:23;2.85;;;1.80;;
71395;SDS011;59888;55.814;37.132;2023-07-13T02:26:49;6.45;;;2.47;;
71395;SDS011;59888;55.814;37.132;2023-07-13T02:29:15;5.50;;;2.10;;
71395;SDS011;59888;55.814;37.132;2023-07-13T02:31:44;3.03;;;2.08;;
71395;SDS011;59888;55.814;37.132;2023-07-13T02:34:10;3.28;;;2.20;;
71395;SDS011;59888;55.814;37.132;2023-07-13T02:36:37;3.88;;;2.47;;
71395;SDS011;59888;55.814;37.132;2023-07-13T02:39:04;6.30;;;2.60;;
71395;SDS011;59888;55.814;37.132;2023-07-13T02:41:34;4.57;;;2.47;;
71395;SDS011;59888;55.814;37.132;2023-07-13T02:44:02;5.22;;;2.40;;
71395;SDS011;59888;55.814;37.132;2023-07-13T02:46:33;5.45;;;2.58;;
71395;SDS011;59888;55.814;37.132;2023-07-13T02:49:00;4.70;;;2.10;;
71395;SDS011;59888;55.814;37.132;2023-07-13T02:51:27;5.45;;;2.40;;
71395;SDS011;59888;55.814;37.132;2023-07-13T02:53:53;3.10;;;2.03;;
71395;SDS011;59888;55.814;37.132;2023-07-13T02:56:22;4.38;;;2.33;;
71395;SDS011;59888;55.814;37.132;2023-07-13T02:58:50;3.33;;;2.28;;
71395;SDS011;59888;55.814;37.132;2023-07-13T03:01:17;4.25;;;2.30;;
71395;SDS011;59888;55.814;37.132;2023-07-13T03:03:45;6.18;;;2.50;;
71395;SDS011;59888;55.814;37.132;2023-07-13T03:06:12;2.97;;;1.83;;
71395;SDS011;59888;55.814;37.132;2023-07-13T03:08:49;3.42;;;2.30;;
71395;SDS011;59888;55.814;37.132;2023-07-13T03:11:17;3.30;;;2.10;;
71395;SDS011;59888;55.814;37.132;2023-07-13T03:13:50;4.72;;;2.45;;
71395;SDS011;59888;55.814;37.132;2023-07-13T03:16:18;6.00;;;2.30;;
71395;SDS011;59888;55.814;37.132;2023-07-13T03:18:46;5.57;;;2.35;;
71395;SDS011;59888;55.814;37.132;2023-07-13T03:21:13;5.03;;;2.38;;
71395;SDS011;59888;55.814;37.132;2023-07-13T03:23:40;5.28;;;2.35;;
71395;SDS011;59888;55.814;37.132;2023-07-13T03:28:34;4.18;;;2.33;;
71395;SDS011;59888;55.814;37.132;2023-07-13T03:31:10;4.38;;;2.50;;
71395;SDS011;59888;55.814;37.132;2023-07-13T03:33:37;4.25;;;2.33;;
71395;SDS011;59888;55.814;37.132;2023-07-13T03:36:06;3.38;;;2.28;;
71395;SDS011;59888;55.814;37.132;2023-07-13T03:38:35;3.45;;;2.00;;
71395;SDS011;59888;55.814;37.132;2023-07-13T03:41:02;4.63;;;2.40;;
71395;SDS011;59888;55.814;37.132;2023-07-13T03:43:29;3.38;;;2.13;;
71395;SDS011;59888;55.814;37.132;2023-07-13T03:45:55;4.63;;;2.40;;
71395;SDS011;59888;55.814;37.132;2023-07-13T03:48:21;4.40;;;2.35;;
71395;SDS011;59888;55.814;37.132;2023-07-13T03:50:48;4.85;;;2.30;;
71395;SDS011;59888;55.814;37.132;2023-07-13T03:53:17;3.55;;;2.20;;
71395;SDS011;59888;55.814;37.132;2023-07-13T03:55:44;4.00;;;2.10;;
71395;SDS011;59888;55.814;37.132;2023-07-13T04:00:54;8.13;;;2.25;;
71395;SDS011;59888;55.814;37.132;2023-07-13T04:03:21;4.93;;;2.03;;
71395;SDS011;59888;55.814;37.132;2023-07-13T04:05:47;2.60;;;2.10;;
71395;SDS011;59888;55.814;37.132;2023-07-13T04:08:13;4.38;;;2.22;;
71395;SDS011;59888;55.814;37.132;2023-07-13T04:10:39;4.65;;;2.00;;
71395;SDS011;59888;55.814;37.132;2023-07-13T04:13:05;4.47;;;2.10;;
71395;SDS011;59888;55.814;37.132;2023-07-13T04:15:31;5.40;;;2.15;;
71395;SDS011;59888;55.814;37.132;2023-07-13T04:17:58;2.60;;;1.90;;
71395;SDS011;59888;55.814;37.132;2023-07-13T04:20:24;4.18;;;2.00;;
71395;SDS011;59888;55.814;37.132;2023-07-13T04:22:51;8.18;;;2.25;;
71395;SDS011;59888;55.814;37.132;2023-07-13T04:25:19;3.33;;;2.00;;
71395;SDS011;59888;55.814;37.132;2023-07-13T04:27:46;4.43;;;2.10;;
71395;SDS011;59888;55.814;37.132;2023-07-13T04:30:12;5.38;;;2.20;;
71395;SDS011;59888;55.814;37.132;2023-07-13T04:32:38;5.05;;;2.20;;
71395;SDS011;59888;55.814;37.132;2023-07-13T04:35:04;4.82;;;2.35;;
71395;SDS011;59888;55.814;37.132;2023-07-13T04:37:31;3.38;;;2.10;;
71395;SDS011;59888;55.814;37.132;2023-07-13T04:39:57;4.13;;;2.38;;
71395;SDS011;59888;55.814;37.132;2023-07-13T04:42:23;6.53;;;1.90;;
71395;SDS011;59888;55.814;37.132;2023-07-13T04:44:49;3.38;;;2.10;;
71395;SDS011;59888;55.814;37.132;2023-07-13T04:47:16;4.65;;;2.03;;
71395;SDS011;59888;55.814;37.132;2023-07-13T04:49:43;4.50;;;2.47;;
71395;SDS011;59888;55.814;37.132;2023-07-13T04:52:09;5.90;;;2.17;;
71395;SDS011;59888;55.814;37.132;2023-07-13T04:54:35;3.42;;;2.00;;
71395;SDS011;59888;55.814;37.132;2023-07-13T04:57:03;6.30;;;2.45;;
71395;SDS011;59888;55.814;37.132;2023-07-13T04:59:32;6.85;;;2.10;;
71395;SDS011;59888;55.814;37.132;2023-07-13T05:01:58;3.70;;;1.88;;
71395;SDS011;59888;55.814;37.132;2023-07-13T05:04:24;4.43;;;2.20;;
71395;SDS011;59888;55.814;37.132;2023-07-13T05:06:50;6.75;;;2.00;;
71395;SDS011;59888;55.814;37.132;2023-07-13T05:09:16;5.82;;;2.25;;
71395;SDS011;59888;55.814;37.132;2023-07-13T05:11:43;3.30;;;1.92;;
71395;SDS011;59888;55.814;37.132;2023-07-13T05:14:09;4.40;;;2.65;;
71395;SDS011;59888;55.814;37.132;2023-07-13T05:16:38;4.18;;;2.20;;
71395;SDS011;59888;55.814;37.132;2023-07-13T05:19:03;5.97;;;1.95;;
71395;SDS011;59888;55.814;37.132;2023-07-13T05:21:30;4.68;;;1.95;;
71395;SDS011;59888;55.814;37.132;2023-07-13T05:23:56;3.22;;;1.73;;
71395;SDS011;59888;55.814;37.132;2023-07-13T05:26:22;8.45;;;2.28;;
71395;SDS011;59888;55.814;37.132;2023-07-13T05:28:48;7.63;;;2.50;;
71395;SDS011;59888;55.814;37.132;2023-07-13T05:31:14;3.35;;;2.05;;
71395;SDS011;59888;55.814;37.132;2023-07-13T05:33:40;4.28;;;1.90;;
71395;SDS011;59888;55.814;37.132;2023-07-13T05:36:06;6.97;;;2.33;;
71395;SDS011;59888;55.814;37.132;2023-07-13T05:38:33;3.83;;;1.98;;
71395;SDS011;59888;55.814;37.132;2023-07-13T05:40:59;4.72;;;1.88;;
71395;SDS011;59888;55.814;37.132;2023-07-13T05:43:25;3.70;;;1.88;;
71395;SDS011;59888;55.814;37.132;2023-07-13T05:45:55;3.17;;;1.70;;
71395;SDS011;59888;55.814;37.132;2023-07-13T05:48:22;5.22;;;1.92;;
71395;SDS011;59888;55.814;37.132;2023-07-13T05:50:48;5.97;;;2.30;;
71395;SDS011;59888;55.814;37.132;2023-07-13T05:53:15;4.43;;;1.70;;
71395;SDS011;59888;55.814;37.132;2023-07-13T05:55:44;4.20;;;1.85;;
71395;SDS011;59888;55.814;37.132;2023-07-13T05:58:16;4.70;;;1.95;;
71395;SDS011;59888;55.814;37.132;2023-07-13T06:00:43;3.47;;;1.88;;
71395;SDS011;59888;55.814;37.132;2023-07-13T06:03:09;3.80;;;1.80;;
71395;SDS011;59888;55.814;37.132;2023-07-13T06:05:35;6.13;;;1.90;;
71395;SDS011;59888;55.814;37.132;2023-07-13T06:08:03;3.10;;;1.75;;
71395;SDS011;59888;55.814;37.132;2023-07-13T06:10:33;4.20;;;1.60;;
71395;SDS011;59888;55.814;37.132;2023-07-13T06:13:02;4.32;;;1.80;;
71395;SDS011;59888;55.814;37.132;2023-07-13T06:15:28;2.75;;;1.92;;
71395;SDS011;59888;55.814;37.132;2023-07-13T06:17:54;3.65;;;1.60;;
71395;SDS011;59888;55.814;37.132;2023-07-13T06:20:20;3.80;;;1.80;;
71395;SDS011;59888;55.814;37.132;2023-07-13T06:22:46;4.20;;;1.67;;
71395;SDS011;59888;55.814;37.132;2023-07-13T06:25:12;3.05;;;1.80;;
71395;SDS011;59888;55.814;37.132;2023-07-13T06:27:38;3.80;;;1.58;;
71395;SDS011;59888;55.814;37.132;2023-07-13T06:30:04;4.05;;;1.88;;
71395;SDS011;59888;55.814;37.132;2023-07-13T06:32:31;3.17;;;1.70;;
71395;SDS011;59888;55.814;37.132;2023-07-13T06:34:57;5.45;;;1.88;;
71395;SDS011;59888;55.814;37.132;2023-07-13T06:37:23;3.10;;;1.60;;
71395;SDS011;59888;55.814;37.132;2023-07-13T06:39:48;5.68;;;1.88;;
71395;SDS011;59888;55.814;37.132;2023-07-13T06:42:15;4.47;;;1.70;;
71395;SDS011;59888;55.814;37.132;2023-07-13T06:44:42;4.15;;;1.70;;
71395;SDS011;59888;55.814;37.132;2023-07-13T06:47:08;2.40;;;1.60;;
71395;SDS011;59888;55.814;37.132;2023-07-13T06:49:35;5.10;;;1.95;;
71395;SDS011;59888;55.814;37.132;2023-07-13T06:52:00;5.20;;;1.45;;
71395;SDS011;59888;55.814;37.132;2023-07-13T06:54:26;3.67;;;2.08;;
71395;SDS011;59888;55.814;37.132;2023-07-13T06:56:53;3.33;;;1.90;;
71395;SDS011;59888;55.814;37.132;2023-07-13T06:59:19;5.85;;;1.95;;
71395;SDS011;59888;55.814;37.132;2023-07-13T07:01:45;2.47;;;1.45;;
71395;SDS011;59888;55.814;37.132;2023-07-13T07:04:11;3.47;;;1.63;;
71395;SDS011;59888;55.814;37.132;2023-07-13T07:06:37;6.68;;;1.60;;
71395;SDS011;59888;55.814;37.132;2023-07-13T07:09:03;4.00;;;1.73;;
71395;SDS011;59888;55.814;37.132;2023-07-13T07:11:29;2.63;;;1.60;;
71395;SDS011;59888;55.814;37.132;2023-07-13T07:13:55;6.13;;;1.70;;
71395;SDS011;59888;55.814;37.132;2023-07-13T07:16:21;2.97;;;1.80;;
71395;SDS011;59888;55.814;37.132;2023-07-13T07:18:47;2.70;;;1.70;;
71395;SDS011;59888;55.814;37.132;2023-07-13T07:21:14;6.45;;;1.88;;
71395;SDS011;59888;55.814;37.132;2023-07-13T07:23:40;3.30;;;1.70;;
71395;SDS011;59888;55.814;37.132;2023-07-13T07:26:06;5.15;;;1.63;;
71395;SDS011;59888;55.814;37.132;2023-07-13T07:28:34;6.15;;;1.83;;
71395;SDS011;59888;55.814;37.132;2023-07-13T07:31:00;4.75;;;2.00;;
71395;SDS011;59888;55.814;37.132;2023-07-13T07:33:26;2.47;;;1.70;;
71395;SDS011;59888;55.814;37.132;2023-07-13T07:35:55;2.90;;;1.58;;
71395;SDS011;59888;55.814;37.132;2023-07-13T07:38:21;6.47;;;1.70;;
71395;SDS011;59888;55.814;37.132;2023-07-13T07:40:47;2.70;;;1.85;;
71395;SDS011;59888;55.814;37.132;2023-07-13T07:43:13;3.55;;;1.75;;
71395;SDS011;59888;55.814;37.132;2023-07-13T07:45:39;4.18;;;1.67;;
71395;SDS011;59888;55.814;37.132;2023-07-13T07:48:06;6.90;;;2.10;;
71395;SDS011;59888;55.814;37.132;2023-07-13T07:50:33;2.65;;;1.60;;
71395;SDS011;59888;55.814;37.132;2023-07-13T07:52:59;4.05;;;1.73;;
71395;SDS011;59888;55.814;37.132;2023-07-13T07:55:27;5.45;;;2.08;;
71395;SDS011;59888;55.814;37.132;2023-07-13T07:57:54;5.57;;;2.03;;
71395;SDS011;59888;55.814;37.132;2023-07-13T08:00:21;4.43;;;1.80;;
71395;SDS011;59888;55.814;37.132;2023-07-13T08:02:48;5.45;;;1.58;;
71395;SDS011;59888;55.814;37.132;2023-07-13T08:05:14;3.83;;;1.90;;
71395;SDS011;59888;55.814;37.132;2023-07-13T08:07:40;5.40;;;1.67;;
71395;SDS011;59888;55.814;37.132;2023-07-13T08:10:07;3.60;;;1.83;;
71395;SDS011;59888;55.814;37.132;2023-07-13T08:12:34;5.43;;;2.45;;
71395;SDS011;59888;55.814;37.132;2023-07-13T08:15:04;6.18;;;1.85;;
71395;SDS011;59888;55.814;37.132;2023-07-13T08:17:32;4.32;;;1.90;;
71395;SDS011;59888;55.814;37.132;2023-07-13T08:19:58;6.00;;;2.00;;
71395;SDS011;59888;55.814;37.132;2023-07-13T08:22:24;4.85;;;2.08;;
71395;SDS011;59888;55.814;37.132;2023-07-13T08:24:51;4.95;;;2.03;;
71395;SDS011;59888;55.814;37.132;2023-07-13T08:27:22;8.27;;;2.42;;
71395;SDS011;59888;55.814;37.132;2023-07-13T08:29:49;3.88;;;2.00;;
71395;SDS011;59888;55.814;37.132;2023-07-13T08:32:16;5.00;;;2.00;;
71395;SDS011;59888;55.814;37.132;2023-07-13T08:34:43;5.93;;;2.25;;
71395;SDS011;59888;55.814;37.132;2023-07-13T08:37:09;5.25;;;2.42;;
71395;SDS011;59888;55.814;37.132;2023-07-13T08:39:36;4.70;;;2.30;;
71395;SDS011;59888;55.814;37.132;2023-07-13T08:42:05;6.10;;;2.20;;
71395;SDS011;59888;55.814;37.132;2023-07-13T08:45:00;7.38;;;2.25;;
71395;SDS011;59888;55.814;37.132;2023-07-13T08:47:35;6.18;;;2.63;;
71395;SDS011;59888;55.814;37.132;2023-07-13T08:50:05;4.78;;;1.95;;
71395;SDS011;59888;55.814;37.132;2023-07-13T08:52:38;3.80;;;2.30;;
71395;SDS011;59888;55.814;37.132;2023-07-13T08:55:13;6.32;;;2.40;;
71395;SDS011;59888;55.814;37.132;2023-07-13T08:58:11;4.45;;;2.40;;
71395;SDS011;59888;55.814;37.132;2023-07-13T09:01:28;5.07;;;2.42;;
71395;SDS011;59888;55.814;37.132;2023-07-13T09:03:41;4.13;;;2.88;;
71395;SDS011;59888;55.814;37.132;2023-07-13T09:06:14;5.70;;;2.63;;
71395;SDS011;59888;55.814;37.132;2023-07-13T09:08:46;5.25;;;2.38;;
71395;SDS011;59888;55.814;37.132;2023-07-13T09:11:30;6.07;;;2.65;;
71395;SDS011;59888;55.814;37.132;2023-07-13T09:17:18;4.43;;;2.80;;
71395;SDS011;59888;55.814;37.132;2023-07-13T09:19:50;3.35;;;2.50;;
71395;SDS011;59888;55.814;37.132;2023-07-13T09:22:25;5.32;;;2.65;;
71395;SDS011;59888;55.814;37.132;2023-07-13T09:24:57;5.90;;;2.58;;
71395;SDS011;59888;55.814;37.132;2023-07-13T09:27:43;4.35;;;2.60;;
71395;SDS011;59888;55.814;37.132;2023-07-13T09:32:47;5.50;;;2.75;;
71395;SDS011;59888;55.814;37.132;2023-07-13T09:35:18;3.65;;;2.53;;
71395;SDS011;59888;55.814;37.132;2023-07-13T09:37:47;5.32;;;2.65;;
71395;SDS011;59888;55.814;37.132;2023-07-13T09:40:17;4.32;;;2.10;;
71395;SDS011;59888;55.814;37.132;2023-07-13T09:42:52;5.15;;;2.58;;
71395;SDS011;59888;55.814;37.132;2023-07-13T09:45:26;4.63;;;2.40;;
71395;SDS011;59888;55.814;37.132;2023-07-13T09:48:10;3.88;;;2.05;;
71395;SDS011;59888;55.814;37.132;2023-07-13T09:50:39;5.18;;;2.20;;
71395;SDS011;59888;55.814;37.132;2023-07-13T09:53:11;4.28;;;2.22;;
71395;SDS011;59888;55.814;37.132;2023-07-13T09:55:42;5.18;;;2.67;;
71395;SDS011;59888;55.814;37.132;2023-07-13T09:58:11;4.13;;;2.38;;
71395;SDS011;59888;55.814;37.132;2023-07-13T10:00:43;4.03;;;1.95;;
71395;SDS011;59888;55.814;37.132;2023-07-13T10:03:20;4.70;;;2.40;;
71395;SDS011;59888;55.814;37.132;2023-07-13T10:05:49;4.88;;;2.13;;
71395;SDS011;59888;55.814;37.132;2023-07-13T10:08:26;4.93;;;2.10;;
71395;SDS011;59888;55.814;37.132;2023-07-13T10:10:54;4.43;;;2.40;;
71395;SDS011;59888;55.814;37.132;2023-07-13T10:13:29;4.93;;;2.13;;
71395;SDS011;59888;55.814;37.132;2023-07-13T10:16:00;4.00;;;2.40;;
71395;SDS011;59888;55.814;37.132;2023-07-13T10:18:26;4.15;;;2.20;;
71395;SDS011;59888;55.814;37.132;2023-07-13T10:20:58;5.32;;;2.75;;
71395;SDS011;59888;55.814;37.132;2023-07-13T10:23:35;3.80;;;2.17;;
71395;SDS011;59888;55.814;37.132;2023-07-13T10:26:02;4.68;;;2.40;;
71395;SDS011;59888;55.814;37.132;2023-07-13T10:28:31;6.65;;;2.58;;
71395;SDS011;59888;55.814;37.132;2023-07-13T10:31:02;6.78;;;2.53;;
71395;SDS011;59888;55.814;37.132;2023-07-13T10:33:35;7.18;;;2.60;;
71395;SDS011;59888;55.814;37.132;2023-07-13T10:36:07;6.43;;;2.70;;
71395;SDS011;59888;55.814;37.132;2023-07-13T10:38:37;4.05;;;2.45;;
71395;SDS011;59888;55.814;37.132;2023-07-13T10:41:06;11.90;;;2.80;;
71395;SDS011;59888;55.814;37.132;2023-07-13T10:43:37;4.63;;;2.60;;
71395;SDS011;59888;55.814;37.132;2023-07-13T10:46:08;7.65;;;2.63;;
71395;SDS011;59888;55.814;37.132;2023-07-13T10:48:40;5.30;;;2.45;;
71395;SDS011;59888;55.814;37.132;2023-07-13T10:51:09;5.35;;;2.35;;
71395;SDS011;59888;55.814;37.132;2023-07-13T10:53:37;5.47;;;2.47;;
71395;SDS011;59888;55.814;37.132;2023-07-13T10:59:28;4.25;;;2.42;;
71395;SDS011;59888;55.814;37.132;2023-07-13T11:02:00;5.45;;;2.70;;
71395;SDS011;59888;55.814;37.132;2023-07-13T11:04:42;6.63;;;3.10;;
71395;SDS011;59888;55.814;37.132;2023-07-13T11:07:32;5.20;;;2.83;;
71395;SDS011;59888;55.814;37.132;2023-07-13T11:10:45;7.88;;;2.90;;
71395;SDS011;59888;55.814;37.132;2023-07-13T11:18:50;6.32;;;2.80;;
71395;SDS011;59888;55.814;37.132;2023-07-13T11:21:18;7.60;;;2.75;;
71395;SDS011;59888;55.814;37.132;2023-07-13T11:23:53;5.90;;;2.80;;
71395;SDS011;59888;55.814;37.132;2023-07-13T11:26:43;4.20;;;2.83;;
71395;SDS011;59888;55.814;37.132;2023-07-13T11:31:43;5.18;;;2.63;;
71395;SDS011;59888;55.814;37.132;2023-07-13T11:34:18;9.02;;;3.10;;
71395;SDS011;59888;55.814;37.132;2023-07-13T11:36:50;9.23;;;3.40;;
71395;SDS011;59888;55.814;37.132;2023-07-13T11:39:21;5.93;;;3.15;;
71395;SDS011;59888;55.814;37.132;2023-07-13T11:41:57;5.70;;;3.10;;
71395;SDS011;59888;55.814;37.132;2023-07-13T11:44:26;5.60;;;2.72;;
71395;SDS011;59888;55.814;37.132;2023-07-13T11:46:55;5.20;;;2.70;;
71395;SDS011;59888;55.814;37.132;2023-07-13T11:49:23;6.22;;;2.85;;
71395;SDS011;59888;55.814;37.132;2023-07-13T11:51:51;4.40;;;2.30;;
71395;SDS011;59888;55.814;37.132;2023-07-13T11:57:05;5.57;;;2.50;;
71395;SDS011;59888;55.814;37.132;2023-07-13T11:59:43;5.78;;;2.78;;
71395;SDS011;59888;55.814;37.132;2023-07-13T12:02:16;6.38;;;2.78;;
71395;SDS011;59888;55.814;37.132;2023-07-13T12:04:52;5.95;;;2.65;;
71395;SDS011;59888;55.814;37.132;2023-07-13T12:07:18;6.40;;;3.00;;
71395;SDS011;59888;55.814;37.132;2023-07-13T12:09:44;5.32;;;2.72;;
71395;SDS011;59888;55.814;37.132;2023-07-13T12:12:18;4.72;;;2.65;;
71395;SDS011;59888;55.814;37.132;2023-07-13T12:14:45;6.70;;;3.03;;
71395;SDS011;59888;55.814;37.132;2023-07-13T12:17:13;4.65;;;2.28;;
71395;SDS011;59888;55.814;37.132;2023-07-13T12:19:44;7.95;;;2.75;;
71395;SDS011;59888;55.814;37.132;2023-07-13T12:22:13;4.75;;;2.50;;
71395;SDS011;59888;55.814;37.132;2023-07-13T12:24:41;4.15;;;2.15;;
71395;SDS011;59888;55.814;37.132;2023-07-13T12:27:19;6.60;;;2.28;;
71395;SDS011;59888;55.814;37.132;2023-07-13T12:30:01;3.95;;;2.38;;
71395;SDS011;59888;55.814;37.132;2023-07-13T12:32:32;4.97;;;2.33;;
71395;SDS011;59888;55.814;37.132;2023-07-13T12:35:13;5.25;;;2.42;;
71395;SDS011;59888;55.814;37.132;2023-07-13T12:37:47;7.10;;;2.42;;
71395;SDS011;59888;55.814;37.132;2023-07-13T12:40:17;5.28;;;2.70;;
71395;SDS011;59888;55.814;37.132;2023-07-13T12:42:46;5.55;;;2.58;;
71395;SDS011;59888;55.814;37.132;2023-07-13T12:47:47;4.38;;;2.78;;
71395;SDS011;59888;55.814;37.132;2023-07-13T12:50:16;8.10;;;2.78;;
71395;SDS011;59888;55.814;37.132;2023-07-13T12:52:53;5.68;;;2.58;;
71395;SDS011;59888;55.814;37.132;2023-07-13T12:55:21;6.20;;;2.53;;
71395;SDS011;59888;55.814;37.132;2023-07-13T12:57:54;8.52;;;2.80;;
71395;SDS011;59888;55.814;37.132;2023-07-13T13:00:30;5.30;;;2.45;;
71395;SDS011;59888;55.814;37.132;2023-07-13T13:03:07;3.92;;;2.20;;
71395;SDS011;59888;55.814;37.132;2023-07-13T13:05:46;6.80;;;2.85;;
71395;SDS011;59888;55.814;37.132;2023-07-13T13:08:12;4.28;;;2.55;;
71395;SDS011;59888;55.814;37.132;2023-07-13T13:10:39;4.72;;;2.60;;
71395;SDS011;59888;55.814;37.132;2023-07-13T13:13:05;4.13;;;2.45;;
71395;SDS011;59888;55.814;37.132;2023-07-13T13:15:31;5.22;;;2.17;;
71395;SDS011;59888;55.814;37.132;2023-07-13T13:17:58;5.00;;;2.53;;
71395;SDS011;59888;55.814;37.132;2023-07-13T13:20:24;3.90;;;2.42;;
71395;SDS011;59888;55.814;37.132;2023-07-13T13:22:53;5.85;;;2.70;;
71395;SDS011;59888;55.814;37.132;2023-07-13T13:25:20;6.35;;;2.88;;
71395;SDS011;59888;55.814;37.132;2023-07-13T13:27:48;7.60;;;2.78;;
71395;SDS011;59888;55.814;37.132;2023-07-13T13:30:16;3.75;;;2.53;;
71395;SDS011;59888;55.814;37.132;2023-07-13T13:32:44;5.10;;;2.55;;
71395;SDS011;59888;55.814;37.132;2023-07-13T13:35:13;5.85;;;2.97;;
71395;SDS011;59888;55.814;37.132;2023-07-13T13:37:40;4.32;;;2.60;;
71395;SDS011;59888;55.814;37.132;2023-07-13T13:40:20;5.60;;;2.72;;
71395;SDS011;59888;55.814;37.132;2023-07-13T13:42:48;9.90;;;3.15;;
71395;SDS011;59888;55.814;37.132;2023-07-13T13:45:15;5.75;;;2.60;;
71395;SDS011;59888;55.814;37.132;2023-07-13T13:47:43;5.10;;;2.67;;
71395;SDS011;59888;55.814;37.132;2023-07-13T13:52:41;4.57;;;2.60;;
71395;SDS011;59888;55.814;37.132;2023-07-13T13:55:17;6.25;;;2.90;;
71395;SDS011;59888;55.814;37.132;2023-07-13T13:57:45;5.72;;;3.00;;
71395;SDS011;59888;55.814;37.132;2023-07-13T14:00:12;6.45;;;3.00;;
71395;SDS011;59888;55.814;37.132;2023-07-13T14:02:46;7.30;;;2.70;;
71395;SDS011;59888;55.814;37.132;2023-07-13T14:05:15;5.13;;;2.38;;
71395;SDS011;59888;55.814;37.132;2023-07-13T14:07:45;7.45;;;2.72;;
71395;SDS011;59888;55.814;37.132;2023-07-13T14:10:16;4.10;;;2.60;;
71395;SDS011;59888;55.814;37.132;2023-07-13T14:12:46;6.40;;;2.50;;
71395;SDS011;59888;55.814;37.132;2023-07-13T14:15:37;7.43;;;2.80;;
71395;SDS011;59888;55.814;37.132;2023-07-13T14:18:02;8.98;;;2.53;;
71395;SDS011;59888;55.814;37.132;2023-07-13T14:20:28;5.95;;;2.63;;
71395;SDS011;59888;55.814;37.132;2023-07-13T14:22:55;5.13;;;2.70;;
71395;SDS011;59888;55.814;37.132;2023-07-13T14:25:21;4.53;;;2.75;;
71395;SDS011;59888;55.814;37.132;2023-07-13T14:27:51;4.85;;;2.55;;
71395;SDS011;59888;55.814;37.132;2023-07-13T14:30:22;6.13;;;2.88;;
71395;SDS011;59888;55.814;37.132;2023-07-13T14:32:48;5.13;;;3.10;;
71395;SDS011;59888;55.814;37.132;2023-07-13T14:35:18;10.80;;;3.28;;
71395;SDS011;59888;55.814;37.132;2023-07-13T14:37:47;7.00;;;3.55;;
71395;SDS011;59888;55.814;37.132;2023-07-13T14:40:14;7.45;;;3.33;;
71395;SDS011;59888;55.814;37.132;2023-07-13T14:42:42;5.88;;;3.53;;
71395;SDS011;59888;55.814;37.132;2023-07-13T14:45:15;7.05;;;3.85;;
71395;SDS011;59888;55.814;37.132;2023-07-13T14:47:42;7.20;;;3.22;;
71395;SDS011;59888;55.814;37.132;2023-07-13T14:50:16;6.25;;;3.10;;
71395;SDS011;59888;55.814;37.132;2023-07-13T14:52:47;4.30;;;2.60;;
71395;SDS011;59888;55.814;37.132;2023-07-13T14:55:15;5.55;;;3.08;;
71395;SDS011;59888;55.814;37.132;2023-07-13T14:57:44;5.00;;;2.67;;
71395;SDS011;59888;55.814;37.132;2023-07-13T15:00:13;5.60;;;2.40;;
71395;SDS011;59888;55.814;37.132;2023-07-13T15:03:01;7.07;;;2.80;;
71395;SDS011;59888;55.814;37.132;2023-07-13T15:05:28;4.75;;;2.55;;
71395;SDS011;59888;55.814;37.132;2023-07-13T15:07:57;5.25;;;2.70;;
71395;SDS011;59888;55.814;37.132;2023-07-13T15:10:29;6.45;;;2.60;;
71395;SDS011;59888;55.814;37.132;2023-07-13T15:12:58;6.22;;;2.70;;
71395;SDS011;59888;55.814;37.132;2023-07-13T15:15:30;5.50;;;2.42;;
71395;SDS011;59888;55.814;37.132;2023-07-13T15:17:59;7.47;;;3.08;;